createdAt,value
2018-11-07T00:00:49.766Z,9.10
2018-11-07T00:03:18.166Z,9.10
2018-11-07T00:05:46.310Z,9.00
2018-11-07T00:08:14.609Z,9.00
2018-11-07T00:10:42.918Z,9.00
2018-11-07T00:13:11.096Z,8.90
2018-11-07T00:15:39.259Z,8.90
2018-11-07T00:18:07.386Z,8.80
2018-11-07T00:20:35.530Z,8.80
2018-11-07T00:23:03.633Z,8.80
2018-11-07T00:25:31.818Z,8.80
2018-11-07T00:27:59.899Z,8.70
2018-11-07T00:30:27.982Z,8.70
2018-11-07T00:32:56.167Z,8.70
2018-11-07T00:35:24.250Z,8.60
2018-11-07T00:37:52.446Z,8.60
2018-11-07T00:40:20.625Z,8.60
2018-11-07T00:42:48.809Z,8.50
2018-11-07T00:45:16.900Z,8.50
2018-11-07T00:47:45.078Z,8.50
2018-11-07T00:50:15.260Z,8.50
2018-11-07T00:52:43.842Z,8.50
2018-11-07T00:55:12.758Z,8.50
2018-11-07T00:57:41.142Z,8.50
2018-11-07T01:00:15.475Z,8.40
2018-11-07T01:02:43.573Z,8.40
2018-11-07T01:05:12.869Z,8.40
2018-11-07T01:07:41.774Z,8.30
2018-11-07T01:10:10.274Z,8.30
2018-11-07T01:12:38.554Z,8.30
2018-11-07T01:15:07.410Z,8.30
2018-11-07T01:17:35.510Z,8.30
2018-11-07T01:20:03.686Z,8.30
2018-11-07T01:22:31.895Z,8.30
2018-11-07T01:25:00.216Z,8.30
2018-11-07T01:27:28.501Z,8.20
2018-11-07T01:29:56.750Z,8.20
2018-11-07T01:32:24.834Z,8.20
2018-11-07T01:34:52.957Z,8.20
2018-11-07T01:37:21.112Z,8.20
2018-11-07T01:39:49.208Z,8.10
2018-11-07T01:42:17.414Z,8.10
2018-11-07T01:44:45.582Z,8.10
2018-11-07T01:47:13.746Z,8.00
2018-11-07T01:49:41.848Z,8.00
2018-11-07T01:52:10.075Z,8.00
2018-11-07T01:54:38.213Z,8.00
2018-11-07T01:57:06.394Z,7.90
2018-11-07T01:59:34.483Z,7.90
2018-11-07T02:02:02.562Z,7.90
2018-11-07T02:04:30.662Z,7.90
2018-11-07T02:06:58.846Z,7.90
2018-11-07T02:09:27.068Z,7.90
2018-11-07T02:11:55.221Z,7.90
2018-11-07T02:14:23.441Z,7.90
2018-11-07T02:16:51.595Z,7.90
2018-11-07T02:19:19.795Z,7.90
2018-11-07T02:21:48.002Z,7.90
2018-11-07T02:24:16.173Z,7.90
2018-11-07T02:26:44.358Z,7.80
2018-11-07T02:29:14.611Z,7.80
2018-11-07T02:31:44.836Z,7.80
2018-11-07T02:34:13.554Z,7.80
2018-11-07T02:36:41.928Z,7.80
2018-11-07T02:39:12.479Z,7.80
2018-11-07T02:41:41.082Z,7.80
2018-11-07T02:44:09.974Z,7.80
2018-11-07T02:46:38.231Z,7.70
2018-11-07T02:49:06.330Z,7.70
2018-11-07T02:51:34.511Z,7.70
2018-11-07T02:54:02.739Z,7.70
2018-11-07T02:56:31.010Z,7.70
2018-11-07T02:58:59.211Z,7.60
2018-11-07T03:01:28.331Z,7.60
2018-11-07T03:03:56.598Z,7.60
2018-11-07T03:06:24.895Z,7.50
2018-11-07T03:08:53.057Z,7.50
2018-11-07T03:11:21.286Z,7.50
2018-11-07T03:13:49.649Z,7.50
2018-11-07T03:16:17.938Z,7.50
2018-11-07T03:18:46.081Z,7.40
2018-11-07T03:21:14.204Z,7.40
2018-11-07T03:23:42.362Z,7.40
2018-11-07T03:26:10.454Z,7.40
2018-11-07T03:28:38.646Z,7.40
2018-11-07T03:31:06.822Z,7.30
2018-11-07T03:33:35.018Z,7.30
2018-11-07T03:36:03.206Z,7.30
2018-11-07T03:38:31.377Z,7.20
2018-11-07T03:40:59.525Z,7.20
2018-11-07T03:43:27.655Z,7.20
2018-11-07T03:45:58.234Z,7.20
2018-11-07T03:48:27.434Z,7.20
2018-11-07T03:50:55.606Z,7.20
2018-11-07T03:53:23.982Z,7.10
2018-11-07T03:55:52.146Z,7.10
2018-11-07T03:58:20.260Z,7.10
2018-11-07T04:00:48.392Z,7.00
2018-11-07T04:03:16.556Z,7.00
2018-11-07T04:05:44.723Z,7.00
2018-11-07T04:08:13.006Z,7.00
2018-11-07T04:10:41.094Z,7.00
2018-11-07T04:13:09.306Z,6.90
2018-11-07T04:15:37.486Z,6.90
2018-11-07T04:18:05.886Z,6.90
2018-11-07T04:20:34.073Z,6.90
2018-11-07T04:23:02.366Z,6.90
2018-11-07T04:25:30.536Z,6.90
2018-11-07T04:27:58.723Z,6.90
2018-11-07T04:30:26.898Z,6.90
2018-11-07T04:32:55.103Z,6.90
2018-11-07T04:35:23.274Z,6.80
2018-11-07T04:37:51.469Z,6.80
2018-11-07T04:40:19.646Z,6.80
2018-11-07T04:42:47.785Z,6.80
2018-11-07T04:45:15.914Z,6.80
2018-11-07T04:47:44.122Z,6.80
2018-11-07T04:50:12.731Z,6.80
2018-11-07T04:52:40.863Z,6.70
2018-11-07T04:55:08.978Z,6.80
2018-11-07T04:57:37.178Z,6.80
2018-11-07T05:00:07.795Z,6.70
2018-11-07T05:02:35.897Z,6.70
2018-11-07T05:05:04.075Z,6.70
2018-11-07T05:07:32.466Z,6.70
2018-11-07T05:10:00.654Z,6.60
2018-11-07T05:12:28.986Z,6.60
2018-11-07T05:14:57.150Z,6.60
2018-11-07T05:17:25.333Z,6.60
2018-11-07T05:19:53.510Z,6.60
2018-11-07T05:22:21.718Z,6.60
2018-11-07T05:24:49.879Z,6.60
2018-11-07T05:27:18.070Z,6.60
2018-11-07T05:29:46.258Z,6.60
2018-11-07T05:32:14.445Z,6.60
2018-11-07T05:34:42.761Z,6.60
2018-11-07T05:37:10.910Z,6.50
2018-11-07T05:39:39.098Z,6.50
2018-11-07T05:42:07.278Z,6.50
2018-11-07T05:44:35.369Z,6.50
2018-11-07T05:47:03.549Z,6.50
2018-11-07T05:49:31.656Z,6.50
2018-11-07T05:51:59.837Z,6.50
2018-11-07T05:54:28.023Z,6.40
2018-11-07T05:56:56.197Z,6.40
2018-11-07T05:59:25.109Z,6.40
2018-11-07T06:01:53.198Z,6.40
2018-11-07T06:04:21.382Z,6.40
2018-11-07T06:06:49.568Z,6.30
2018-11-07T06:09:17.774Z,6.30
2018-11-07T06:11:45.933Z,6.30
2018-11-07T06:14:14.027Z,6.30
2018-11-07T06:16:42.218Z,6.30
2018-11-07T06:19:10.410Z,6.20
2018-11-07T06:21:38.590Z,6.20
2018-11-07T06:24:06.788Z,6.20
2018-11-07T06:26:34.971Z,6.20
2018-11-07T06:29:03.166Z,6.20
2018-11-07T06:31:31.370Z,6.20
2018-11-07T06:33:59.537Z,6.20
2018-11-07T06:36:27.708Z,6.20
2018-11-07T06:38:55.930Z,6.10
2018-11-07T06:41:24.082Z,6.20
2018-11-07T06:43:52.174Z,6.20
2018-11-07T06:46:20.394Z,6.20
2018-11-07T06:48:48.554Z,6.20
2018-11-07T06:51:16.753Z,6.20
2018-11-07T06:53:44.921Z,6.30
2018-11-07T06:56:13.128Z,6.30
2018-11-07T06:58:41.291Z,6.30
2018-11-07T07:01:09.506Z,6.30
2018-11-07T07:03:37.666Z,6.30
2018-11-07T07:06:05.867Z,6.30
2018-11-07T07:08:33.958Z,6.30
2018-11-07T07:11:02.126Z,6.30
2018-11-07T07:13:30.335Z,6.30
2018-11-07T07:15:58.526Z,6.20
2018-11-07T07:18:26.702Z,6.20
2018-11-07T07:20:54.866Z,6.20
2018-11-07T07:23:23.066Z,6.20
2018-11-07T07:25:51.255Z,6.20
2018-11-07T07:28:19.442Z,6.20
2018-11-07T07:30:47.630Z,6.20
2018-11-07T07:33:15.849Z,6.10
2018-11-07T07:35:43.902Z,6.20
2018-11-07T07:38:12.083Z,6.20
2018-11-07T07:40:40.274Z,6.30
2018-11-07T07:43:08.458Z,7.50
2018-11-07T07:45:36.679Z,8.70
2018-11-07T07:48:05.008Z,10.00
2018-11-07T07:50:33.115Z,10.80
2018-11-07T07:53:01.392Z,11.20
2018-11-07T07:55:29.502Z,10.90
2018-11-07T07:57:57.689Z,10.40
2018-11-07T08:00:25.874Z,9.90
2018-11-07T08:02:54.047Z,9.40
2018-11-07T08:05:22.253Z,8.90
2018-11-07T08:07:50.550Z,8.60
2018-11-07T08:10:19.970Z,8.30
2018-11-07T08:12:48.563Z,8.10
2018-11-07T08:15:17.330Z,7.90
2018-11-07T08:17:45.959Z,8.10
2018-11-07T08:20:15.274Z,8.10
2018-11-07T08:22:44.291Z,8.00
2018-11-07T08:25:12.584Z,7.80
2018-11-07T08:27:40.781Z,7.80
2018-11-07T08:30:10.470Z,7.70
2018-11-07T08:32:38.774Z,7.60
2018-11-07T08:35:08.182Z,7.60
2018-11-07T08:37:36.390Z,7.50
2018-11-07T08:40:07.202Z,7.50
2018-11-07T08:42:35.392Z,7.50
2018-11-07T08:45:03.614Z,7.50
2018-11-07T08:47:31.861Z,7.50
2018-11-07T08:49:59.959Z,7.50
2018-11-07T08:52:28.054Z,7.60
2018-11-07T08:54:56.255Z,7.60
2018-11-07T08:57:24.418Z,7.70
2018-11-07T08:59:52.598Z,7.70
2018-11-07T09:02:20.791Z,7.70
2018-11-07T09:04:48.970Z,7.80
2018-11-07T09:07:17.154Z,7.90
2018-11-07T09:09:45.335Z,8.00
2018-11-07T09:12:13.562Z,8.10
2018-11-07T09:14:41.714Z,8.10
2018-11-07T09:17:09.906Z,8.20
2018-11-07T09:19:38.113Z,8.30
2018-11-07T09:22:06.294Z,8.30
2018-11-07T09:24:34.656Z,8.50
2018-11-07T09:27:03.104Z,8.60
2018-11-07T09:29:31.243Z,8.70
2018-11-07T09:31:59.438Z,8.80
2018-11-07T09:34:27.617Z,8.90
2018-11-07T09:36:55.820Z,9.10
2018-11-07T09:39:23.906Z,9.20
2018-11-07T09:41:52.090Z,9.40
2018-11-07T09:44:20.265Z,9.50
2018-11-07T09:46:48.453Z,9.60
2018-11-07T09:49:16.766Z,9.70
2018-11-07T09:51:44.938Z,10.00
2018-11-07T09:54:13.257Z,10.30
2018-11-07T09:56:41.405Z,10.70
2018-11-07T09:59:09.602Z,11.00
2018-11-07T10:01:37.790Z,11.10
2018-11-07T10:04:05.969Z,11.20
2018-11-07T10:06:34.186Z,11.20
2018-11-07T10:09:02.245Z,11.10
2018-11-07T10:11:30.450Z,10.90
2018-11-07T10:13:58.610Z,10.90
2018-11-07T10:16:26.797Z,10.90
2018-11-07T10:18:54.994Z,10.90
2018-11-07T10:21:23.086Z,11.00
2018-11-07T10:23:51.253Z,11.10
2018-11-07T10:26:19.445Z,11.10
2018-11-07T10:28:47.863Z,11.20
2018-11-07T10:31:15.842Z,11.20
2018-11-07T10:33:44.014Z,11.20
2018-11-07T10:36:12.186Z,11.30
2018-11-07T10:38:40.560Z,11.60
2018-11-07T10:41:08.562Z,11.90
2018-11-07T10:43:36.771Z,12.30
2018-11-07T10:46:05.216Z,12.80
2018-11-07T10:48:33.348Z,13.20
2018-11-07T10:51:01.552Z,13.60
2018-11-07T10:53:29.715Z,14.10
2018-11-07T10:55:57.885Z,14.40
2018-11-07T10:58:26.175Z,14.80
2018-11-07T11:00:59.672Z,15.10
2018-11-07T11:03:28.525Z,15.30
2018-11-07T11:05:56.702Z,15.20
2018-11-07T11:08:24.885Z,15.00
2018-11-07T11:10:53.050Z,14.80
2018-11-07T11:13:21.268Z,14.40
2018-11-07T11:15:49.434Z,14.10
2018-11-07T11:18:17.610Z,13.90
2018-11-07T11:20:45.782Z,13.60
2018-11-07T11:23:13.895Z,13.40
2018-11-07T11:25:42.123Z,13.30
2018-11-07T11:28:10.269Z,13.10
2018-11-07T11:30:38.440Z,13.10
2018-11-07T11:33:06.631Z,13.00
2018-11-07T11:35:34.698Z,12.90
2018-11-07T11:38:02.797Z,12.90
2018-11-07T11:40:30.991Z,12.80
2018-11-07T11:42:59.174Z,12.80
2018-11-07T11:45:27.343Z,12.80
2018-11-07T11:47:55.422Z,12.70
2018-11-07T11:50:23.522Z,12.70
2018-11-07T11:52:51.714Z,12.70
2018-11-07T11:55:19.881Z,12.80
2018-11-07T11:57:48.234Z,12.80
2018-11-07T12:00:17.766Z,12.80
2018-11-07T12:02:46.250Z,12.80
2018-11-07T12:05:15.236Z,12.80
2018-11-07T12:07:43.634Z,12.80
2018-11-07T12:10:19.300Z,12.80
2018-11-07T12:12:48.719Z,12.90
2018-11-07T12:15:17.890Z,12.90
2018-11-07T12:17:46.006Z,12.90
2018-11-07T12:20:14.181Z,12.90
2018-11-07T12:22:42.357Z,13.00
2018-11-07T12:25:11.627Z,13.10
2018-11-07T12:27:40.294Z,13.10
2018-11-07T12:30:10.942Z,13.10
2018-11-07T12:32:39.154Z,13.20
2018-11-07T12:35:07.291Z,13.20
2018-11-07T12:37:35.464Z,13.30
2018-11-07T12:40:03.847Z,13.40
2018-11-07T12:42:32.051Z,13.50
2018-11-07T12:45:00.561Z,13.60
2018-11-07T12:47:28.948Z,13.90
2018-11-07T12:49:57.276Z,14.20
2018-11-07T12:52:25.300Z,14.40
2018-11-07T12:54:53.618Z,14.70
2018-11-07T12:57:21.897Z,15.10
2018-11-07T12:59:49.973Z,15.60
2018-11-07T13:02:18.278Z,16.00
2018-11-07T13:04:46.482Z,16.40
2018-11-07T13:07:14.659Z,16.90
2018-11-07T13:09:42.826Z,17.40
2018-11-07T13:12:11.018Z,17.50
2018-11-07T13:14:39.198Z,17.50
2018-11-07T13:17:07.371Z,17.50
2018-11-07T13:19:35.570Z,17.50
2018-11-07T13:22:03.764Z,17.50
2018-11-07T13:24:31.942Z,17.40
2018-11-07T13:27:00.143Z,17.30
2018-11-07T13:29:28.230Z,17.10
2018-11-07T13:31:56.407Z,17.00
2018-11-07T13:34:24.592Z,17.10
2018-11-07T13:36:52.950Z,17.10
2018-11-07T13:39:21.324Z,17.40
2018-11-07T13:41:49.734Z,17.80
2018-11-07T13:44:17.842Z,18.00
2018-11-07T13:46:46.023Z,18.30
2018-11-07T13:49:14.221Z,18.60
2018-11-07T13:51:42.406Z,18.70
2018-11-07T13:54:10.604Z,18.60
2018-11-07T13:56:38.766Z,18.40
2018-11-07T13:59:07.022Z,18.00
2018-11-07T14:01:35.146Z,17.60
2018-11-07T14:04:03.346Z,17.30
2018-11-07T14:06:31.523Z,16.90
2018-11-07T14:08:59.730Z,16.60
2018-11-07T14:11:27.898Z,16.30
2018-11-07T14:13:56.110Z,16.00
2018-11-07T14:16:24.268Z,15.80
2018-11-07T14:18:52.353Z,15.50
2018-11-07T14:21:20.545Z,15.30
2018-11-07T14:23:48.764Z,15.20
2018-11-07T14:26:16.923Z,15.00
2018-11-07T14:28:45.079Z,14.80
2018-11-07T14:31:13.390Z,14.70
2018-11-07T14:33:41.574Z,14.60
2018-11-07T14:36:09.751Z,14.50
2018-11-07T14:38:37.868Z,14.40
2018-11-07T14:41:05.934Z,14.30
2018-11-07T14:43:34.118Z,14.30
2018-11-07T14:46:02.333Z,14.20
2018-11-07T14:48:30.377Z,14.20
2018-11-07T14:50:58.476Z,14.10
2018-11-07T14:53:26.683Z,14.10
2018-11-07T14:55:54.738Z,14.00
2018-11-07T14:58:22.806Z,13.90
2018-11-07T15:00:50.910Z,13.80
2018-11-07T15:03:18.986Z,13.80
2018-11-07T15:05:47.127Z,13.70
2018-11-07T15:08:15.350Z,13.70
2018-11-07T15:10:43.459Z,13.60
2018-11-07T15:13:11.522Z,13.50
2018-11-07T15:15:39.649Z,13.40
2018-11-07T15:18:07.818Z,13.40
2018-11-07T15:20:36.029Z,13.30
2018-11-07T15:23:04.270Z,13.20
2018-11-07T15:25:32.394Z,13.10
2018-11-07T15:28:00.579Z,13.10
2018-11-07T15:30:29.531Z,13.00
2018-11-07T15:32:57.657Z,12.90
2018-11-07T15:35:25.858Z,12.80
2018-11-07T15:37:53.965Z,12.80
2018-11-07T15:40:22.127Z,12.70
2018-11-07T15:42:50.306Z,12.60
2018-11-07T15:45:19.538Z,12.60
2018-11-07T15:47:47.699Z,12.50
2018-11-07T15:51:25.154Z,12.40
2018-11-07T15:53:53.294Z,12.40
2018-11-07T15:56:21.493Z,12.30
2018-11-07T15:58:49.682Z,12.20
2018-11-07T16:01:17.915Z,12.10
2018-11-07T16:03:48.399Z,12.10
2018-11-07T16:06:17.737Z,12.00
2018-11-07T16:08:45.814Z,11.90
2018-11-07T16:11:13.994Z,11.90
2018-11-07T16:13:42.196Z,11.80
2018-11-07T16:16:10.382Z,11.70
2018-11-07T16:18:38.542Z,11.60
2018-11-07T16:21:06.742Z,11.50
2018-11-07T16:23:34.938Z,11.50
2018-11-07T16:26:03.073Z,11.40
2018-11-07T16:28:31.215Z,11.40
2018-11-07T16:30:59.394Z,11.30
2018-11-07T16:33:27.566Z,11.30
2018-11-07T16:35:55.767Z,11.30
2018-11-07T16:38:23.974Z,11.20
2018-11-07T16:40:52.254Z,11.20
2018-11-07T16:43:20.237Z,11.10
2018-11-07T16:45:48.430Z,11.10
2018-11-07T16:48:16.645Z,11.10
2018-11-07T16:50:44.799Z,11.10
2018-11-07T16:53:12.878Z,11.10
2018-11-07T16:55:41.074Z,11.10
2018-11-07T16:58:09.250Z,11.10
2018-11-07T17:00:37.426Z,11.10
2018-11-07T17:03:05.678Z,11.10
2018-11-07T17:05:33.863Z,11.10
2018-11-07T17:08:01.977Z,11.10
2018-11-07T17:10:30.186Z,11.10
2018-11-07T17:12:58.370Z,11.10
2018-11-07T17:15:26.542Z,11.10
2018-11-07T17:17:54.729Z,11.10
2018-11-07T17:20:22.939Z,11.10
2018-11-07T17:22:51.130Z,11.10
2018-11-07T17:25:19.630Z,11.10
2018-11-07T17:27:47.914Z,11.20
2018-11-07T17:30:17.218Z,11.20
2018-11-07T17:32:45.314Z,11.20
2018-11-07T17:35:14.725Z,11.20
2018-11-07T17:37:43.446Z,11.20
2018-11-07T17:40:14.701Z,11.20
2018-11-07T17:42:43.489Z,11.20
2018-11-07T17:45:13.649Z,11.20
2018-11-07T17:47:42.328Z,11.40
2018-11-07T17:50:11.944Z,11.50
2018-11-07T17:52:40.361Z,11.50
2018-11-07T17:55:09.638Z,11.50
2018-11-07T17:57:37.738Z,11.40
2018-11-07T18:00:07.965Z,11.40
2018-11-07T18:02:36.130Z,11.40
2018-11-07T18:05:04.355Z,11.30
2018-11-07T18:07:32.516Z,11.30
2018-11-07T18:10:00.698Z,11.30
2018-11-07T18:12:28.921Z,11.20
2018-11-07T18:14:57.074Z,11.20
2018-11-07T18:17:25.243Z,11.20
2018-11-07T18:19:53.334Z,11.20
2018-11-07T18:22:21.506Z,11.20
2018-11-07T18:24:49.621Z,11.20
2018-11-07T18:27:17.817Z,11.20
2018-11-07T18:29:45.871Z,11.20
2018-11-07T18:32:13.993Z,11.20
2018-11-07T18:34:42.046Z,11.30
2018-11-07T18:37:10.213Z,11.30
2018-11-07T18:39:38.647Z,11.30
2018-11-07T18:42:06.789Z,11.30
2018-11-07T18:44:35.062Z,11.30
2018-11-07T18:47:03.069Z,11.20
2018-11-07T18:49:31.159Z,11.20
2018-11-07T18:51:59.330Z,11.20
2018-11-07T18:54:27.427Z,11.20
2018-11-07T18:56:55.610Z,11.20
2018-11-07T18:59:23.806Z,11.20
2018-11-07T19:01:51.878Z,11.20
2018-11-07T19:04:19.976Z,11.20
2018-11-07T19:06:48.277Z,11.20
2018-11-07T19:09:16.338Z,11.20
2018-11-07T19:11:44.403Z,11.20
2018-11-07T19:14:12.530Z,11.30
2018-11-07T19:16:40.708Z,11.30
2018-11-07T19:19:08.778Z,11.40
2018-11-07T19:21:36.966Z,11.40
2018-11-07T19:24:05.232Z,11.40
2018-11-07T19:26:33.361Z,11.40
2018-11-07T19:29:01.447Z,11.40
2018-11-07T19:31:29.598Z,11.40
2018-11-07T19:33:57.710Z,11.40
2018-11-07T19:36:25.877Z,11.40
2018-11-07T19:38:53.968Z,11.40
2018-11-07T19:41:22.074Z,11.40
2018-11-07T19:43:50.238Z,11.30
2018-11-07T19:46:18.359Z,11.30
2018-11-07T19:48:46.510Z,11.30
2018-11-07T19:51:14.594Z,11.30
2018-11-07T19:53:42.772Z,11.30
2018-11-07T19:56:10.873Z,11.30
2018-11-07T19:58:41.428Z,11.30
2018-11-07T20:01:09.613Z,11.30
2018-11-07T20:03:37.774Z,11.30
2018-11-07T20:06:06.102Z,11.30
2018-11-07T20:08:34.257Z,11.30
2018-11-07T20:11:02.352Z,11.20
2018-11-07T20:13:30.525Z,11.30
2018-11-07T20:15:58.733Z,11.20
2018-11-07T20:18:26.906Z,11.20
2018-11-07T20:20:54.995Z,11.20
2018-11-07T20:23:23.201Z,11.20
2018-11-07T20:25:51.174Z,11.20
2018-11-07T20:28:19.361Z,11.20
2018-11-07T20:30:47.561Z,11.20
2018-11-07T20:33:15.736Z,11.20
2018-11-07T20:35:44.022Z,11.20
2018-11-07T20:38:12.091Z,11.20
2018-11-07T20:40:40.285Z,11.20
2018-11-07T20:43:08.458Z,11.20
2018-11-07T20:45:36.558Z,11.20
2018-11-07T20:48:04.775Z,11.20
2018-11-07T20:50:32.930Z,11.20
2018-11-07T20:53:01.102Z,11.20
2018-11-07T20:55:29.218Z,11.20
2018-11-07T20:57:57.387Z,11.20
2018-11-07T21:00:25.581Z,11.10
2018-11-07T21:02:53.749Z,11.10
2018-11-07T21:05:21.838Z,11.10
2018-11-07T21:07:49.914Z,11.10
2018-11-07T21:10:19.271Z,11.20
2018-11-07T21:12:47.869Z,11.20
2018-11-07T21:15:17.074Z,11.20
2018-11-07T21:17:45.473Z,11.20
2018-11-07T21:20:13.686Z,11.10
2018-11-07T21:22:42.365Z,11.10
2018-11-07T21:25:10.743Z,11.10
2018-11-07T21:27:38.965Z,11.10
2018-11-07T21:30:09.218Z,11.10
2018-11-07T21:32:37.478Z,11.10
2018-11-07T21:35:05.945Z,11.10
2018-11-07T21:37:34.033Z,11.10
2018-11-07T21:40:02.329Z,11.10
2018-11-07T21:42:30.725Z,11.10
2018-11-07T21:44:58.897Z,11.10
2018-11-07T21:47:27.072Z,11.10
2018-11-07T21:49:55.298Z,11.10
2018-11-07T21:52:23.461Z,11.10
2018-11-07T21:54:51.722Z,11.00
2018-11-07T21:57:19.817Z,11.00
2018-11-07T21:59:48.001Z,11.00
2018-11-07T22:02:16.206Z,11.00
2018-11-07T22:04:44.378Z,11.00
2018-11-07T22:07:12.558Z,11.00
2018-11-07T22:09:40.761Z,11.00
2018-11-07T22:12:08.928Z,11.00
2018-11-07T22:14:37.026Z,11.00
2018-11-07T22:17:05.266Z,11.00
2018-11-07T22:19:33.402Z,11.00
2018-11-07T22:22:01.581Z,11.00
2018-11-07T22:24:29.773Z,11.00
2018-11-07T22:26:57.957Z,11.00
2018-11-07T22:29:26.159Z,11.00
2018-11-07T22:31:54.326Z,11.10
2018-11-07T22:34:22.527Z,11.10
2018-11-07T22:36:50.706Z,11.10
2018-11-07T22:39:18.890Z,11.10
2018-11-07T22:41:47.073Z,11.10
2018-11-07T22:44:15.278Z,11.10
2018-11-07T22:46:43.650Z,11.10
2018-11-07T22:49:11.855Z,11.00
2018-11-07T22:51:40.030Z,11.10
2018-11-07T22:54:08.217Z,11.00
2018-11-07T22:56:36.407Z,11.00
2018-11-07T22:59:04.644Z,11.00
2018-11-07T23:01:38.015Z,11.00
2018-11-07T23:04:06.324Z,11.00
2018-11-07T23:06:34.817Z,11.00
2018-11-07T23:09:03.010Z,11.00
2018-11-07T23:11:31.174Z,11.00
2018-11-07T23:13:59.358Z,11.00
2018-11-07T23:16:27.551Z,11.00
2018-11-07T23:18:55.734Z,11.00
2018-11-07T23:21:23.935Z,11.00
2018-11-07T23:23:52.116Z,10.90
2018-11-07T23:26:20.287Z,10.90
2018-11-07T23:28:48.478Z,10.90
2018-11-07T23:31:16.651Z,10.90
2018-11-07T23:33:44.841Z,10.90
2018-11-07T23:36:13.022Z,10.90
2018-11-07T23:38:41.246Z,10.90
2018-11-07T23:41:09.400Z,10.90
2018-11-07T23:43:37.818Z,10.90
2018-11-07T23:46:05.994Z,10.90
2018-11-07T23:48:34.199Z,10.90
2018-11-07T23:51:02.350Z,10.80
2018-11-07T23:53:30.538Z,10.80
2018-11-07T23:55:58.721Z,10.80
2018-11-07T23:58:26.926Z,10.80
